sensor_id;sensor_type;location;lat;lon;timestamp;P1;durP1;ratioP1;P2;durP2;ratioP2
80732;SDS011;70130;44.534;18.678;2023-07-30T00:02:17;9.00;;;6.43;;
80732;SDS011;70130;44.534;18.678;2023-07-30T00:04:43;8.25;;;6.53;;
80732;SDS011;70130;44.534;18.678;2023-07-30T00:07:09;9.68;;;6.80;;
80732;SDS011;70130;44.534;18.678;2023-07-30T00:09:36;10.60;;;6.80;;
80732;SDS011;70130;44.534;18.678;2023-07-30T00:12:02;9.10;;;7.10;;
80732;SDS011;70130;44.534;18.678;2023-07-30T00:14:28;10.85;;;6.53;;
80732;SDS011;70130;44.534;18.678;2023-07-30T00:16:54;8.15;;;6.68;;
80732;SDS011;70130;44.534;18.678;2023-07-30T00:19:19;9.30;;;6.22;;
80732;SDS011;70130;44.534;18.678;2023-07-30T00:21:45;8.45;;;6.65;;
80732;SDS011;70130;44.534;18.678;2023-07-30T00:24:14;9.13;;;6.35;;
80732;SDS011;70130;44.534;18.678;2023-07-30T00:26:40;8.88;;;6.72;;
80732;SDS011;70130;44.534;18.678;2023-07-30T00:29:05;8.40;;;6.30;;
80732;SDS011;70130;44.534;18.678;2023-07-30T00:31:31;10.32;;;6.68;;
80732;SDS011;70130;44.534;18.678;2023-07-30T00:33:57;8.52;;;6.68;;
80732;SDS011;70130;44.534;18.678;2023-07-30T00:36:23;7.97;;;6.10;;
80732;SDS011;70130;44.534;18.678;2023-07-30T00:38:48;9.38;;;6.70;;
80732;SDS011;70130;44.534;18.678;2023-07-30T00:41:14;8.82;;;6.95;;
80732;SDS011;70130;44.534;18.678;2023-07-30T00:43:40;10.15;;;6.70;;
80732;SDS011;70130;44.534;18.678;2023-07-30T00:46:05;9.23;;;6.70;;
80732;SDS011;70130;44.534;18.678;2023-07-30T00:48:31;9.68;;;7.03;;
80732;SDS011;70130;44.534;18.678;2023-07-30T00:50:57;10.45;;;7.50;;
80732;SDS011;70130;44.534;18.678;2023-07-30T00:53:25;9.27;;;6.55;;
80732;SDS011;70130;44.534;18.678;2023-07-30T00:55:52;9.60;;;7.28;;
80732;SDS011;70130;44.534;18.678;2023-07-30T00:58:18;12.60;;;7.10;;
80732;SDS011;70130;44.534;18.678;2023-07-30T01:00:45;9.63;;;7.22;;
80732;SDS011;70130;44.534;18.678;2023-07-30T01:03:11;8.30;;;6.30;;
80732;SDS011;70130;44.534;18.678;2023-07-30T01:05:37;9.73;;;7.10;;
80732;SDS011;70130;44.534;18.678;2023-07-30T01:08:03;11.18;;;7.45;;
80732;SDS011;70130;44.534;18.678;2023-07-30T01:10:29;11.90;;;7.05;;
80732;SDS011;70130;44.534;18.678;2023-07-30T01:12:57;8.10;;;6.20;;
80732;SDS011;70130;44.534;18.678;2023-07-30T01:15:27;11.13;;;7.77;;
80732;SDS011;70130;44.534;18.678;2023-07-30T01:17:53;12.07;;;7.40;;
80732;SDS011;70130;44.534;18.678;2023-07-30T01:20:20;11.55;;;7.05;;
80732;SDS011;70130;44.534;18.678;2023-07-30T01:22:46;10.27;;;7.05;;
80732;SDS011;70130;44.534;18.678;2023-07-30T01:25:13;8.45;;;6.80;;
80732;SDS011;70130;44.534;18.678;2023-07-30T01:27:39;9.27;;;6.93;;
80732;SDS011;70130;44.534;18.678;2023-07-30T01:32:43;9.75;;;7.43;;
80732;SDS011;70130;44.534;18.678;2023-07-30T01:35:11;12.77;;;7.60;;
80732;SDS011;70130;44.534;18.678;2023-07-30T01:37:38;10.68;;;7.57;;
80732;SDS011;70130;44.534;18.678;2023-07-30T01:40:06;9.52;;;7.22;;
80732;SDS011;70130;44.534;18.678;2023-07-30T01:42:34;8.90;;;6.90;;
80732;SDS011;70130;44.534;18.678;2023-07-30T01:44:59;8.60;;;7.38;;
80732;SDS011;70130;44.534;18.678;2023-07-30T01:47:25;10.63;;;6.68;;
80732;SDS011;70130;44.534;18.678;2023-07-30T01:49:51;9.95;;;7.10;;
80732;SDS011;70130;44.534;18.678;2023-07-30T01:52:16;12.23;;;7.32;;
80732;SDS011;70130;44.534;18.678;2023-07-30T01:54:42;9.02;;;6.82;;
80732;SDS011;70130;44.534;18.678;2023-07-30T01:57:08;10.95;;;7.30;;
80732;SDS011;70130;44.534;18.678;2023-07-30T01:59:33;9.82;;;7.07;;
80732;SDS011;70130;44.534;18.678;2023-07-30T02:01:59;8.70;;;6.88;;
80732;SDS011;70130;44.534;18.678;2023-07-30T02:04:24;9.48;;;6.63;;
80732;SDS011;70130;44.534;18.678;2023-07-30T02:06:50;9.18;;;6.40;;
80732;SDS011;70130;44.534;18.678;2023-07-30T02:09:16;9.93;;;7.15;;
80732;SDS011;70130;44.534;18.678;2023-07-30T02:11:41;13.38;;;7.03;;
80732;SDS011;70130;44.534;18.678;2023-07-30T02:14:08;11.35;;;7.28;;
80732;SDS011;70130;44.534;18.678;2023-07-30T02:16:34;8.75;;;7.03;;
80732;SDS011;70130;44.534;18.678;2023-07-30T02:19:00;12.02;;;7.78;;
80732;SDS011;70130;44.534;18.678;2023-07-30T02:21:25;10.32;;;6.97;;
80732;SDS011;70130;44.534;18.678;2023-07-30T02:23:51;11.85;;;7.82;;
80732;SDS011;70130;44.534;18.678;2023-07-30T02:26:17;9.80;;;7.78;;
80732;SDS011;70130;44.534;18.678;2023-07-30T02:28:42;9.82;;;7.32;;
80732;SDS011;70130;44.534;18.678;2023-07-30T02:31:08;10.02;;;7.40;;
80732;SDS011;70130;44.534;18.678;2023-07-30T02:33:34;11.60;;;7.65;;
80732;SDS011;70130;44.534;18.678;2023-07-30T02:35:59;10.23;;;8.05;;
80732;SDS011;70130;44.534;18.678;2023-07-30T02:38:25;11.32;;;7.47;;
80732;SDS011;70130;44.534;18.678;2023-07-30T02:40:50;8.75;;;7.47;;
80732;SDS011;70130;44.534;18.678;2023-07-30T02:43:16;9.30;;;7.70;;
80732;SDS011;70130;44.534;18.678;2023-07-30T02:45:41;10.13;;;7.63;;
80732;SDS011;70130;44.534;18.678;2023-07-30T02:48:07;11.82;;;7.80;;
80732;SDS011;70130;44.534;18.678;2023-07-30T02:50:33;10.90;;;7.35;;
80732;SDS011;70130;44.534;18.678;2023-07-30T02:52:58;8.20;;;6.25;;
80732;SDS011;70130;44.534;18.678;2023-07-30T02:55:24;9.65;;;7.63;;
80732;SDS011;70130;44.534;18.678;2023-07-30T02:57:49;9.63;;;7.35;;
80732;SDS011;70130;44.534;18.678;2023-07-30T03:00:15;9.52;;;6.75;;
80732;SDS011;70130;44.534;18.678;2023-07-30T03:02:41;11.52;;;7.40;;
80732;SDS011;70130;44.534;18.678;2023-07-30T03:05:07;8.02;;;6.53;;
80732;SDS011;70130;44.534;18.678;2023-07-30T03:07:32;9.35;;;7.32;;
80732;SDS011;70130;44.534;18.678;2023-07-30T03:09:58;9.48;;;7.45;;
80732;SDS011;70130;44.534;18.678;2023-07-30T03:12:23;12.15;;;7.88;;
80732;SDS011;70130;44.534;18.678;2023-07-30T03:14:49;9.15;;;7.22;;
80732;SDS011;70130;44.534;18.678;2023-07-30T03:17:15;8.75;;;6.90;;
80732;SDS011;70130;44.534;18.678;2023-07-30T03:19:40;10.23;;;6.80;;
80732;SDS011;70130;44.534;18.678;2023-07-30T03:22:06;11.48;;;7.25;;
80732;SDS011;70130;44.534;18.678;2023-07-30T03:24:32;11.45;;;7.47;;
80732;SDS011;70130;44.534;18.678;2023-07-30T03:26:57;10.52;;;7.18;;
80732;SDS011;70130;44.534;18.678;2023-07-30T03:29:23;8.75;;;6.72;;
80732;SDS011;70130;44.534;18.678;2023-07-30T03:31:48;11.30;;;7.43;;
80732;SDS011;70130;44.534;18.678;2023-07-30T03:34:14;9.43;;;7.40;;
80732;SDS011;70130;44.534;18.678;2023-07-30T03:36:39;9.60;;;7.35;;
80732;SDS011;70130;44.534;18.678;2023-07-30T03:39:05;10.15;;;7.00;;
80732;SDS011;70130;44.534;18.678;2023-07-30T03:41:31;9.25;;;7.38;;
80732;SDS011;70130;44.534;18.678;2023-07-30T03:43:56;9.40;;;7.38;;
80732;SDS011;70130;44.534;18.678;2023-07-30T03:46:23;9.65;;;6.97;;
80732;SDS011;70130;44.534;18.678;2023-07-30T03:48:48;9.60;;;7.07;;
80732;SDS011;70130;44.534;18.678;2023-07-30T03:51:14;8.30;;;7.15;;
80732;SDS011;70130;44.534;18.678;2023-07-30T03:53:39;8.35;;;7.10;;
80732;SDS011;70130;44.534;18.678;2023-07-30T03:56:05;9.55;;;7.15;;
80732;SDS011;70130;44.534;18.678;2023-07-30T03:58:30;11.73;;;7.82;;
80732;SDS011;70130;44.534;18.678;2023-07-30T04:00:56;9.60;;;7.78;;
80732;SDS011;70130;44.534;18.678;2023-07-30T04:03:22;9.90;;;7.63;;
80732;SDS011;70130;44.534;18.678;2023-07-30T04:05:47;12.52;;;7.60;;
80732;SDS011;70130;44.534;18.678;2023-07-30T04:08:13;13.27;;;7.88;;
80732;SDS011;70130;44.534;18.678;2023-07-30T04:10:38;10.07;;;6.93;;
80732;SDS011;70130;44.534;18.678;2023-07-30T04:13:04;9.27;;;7.28;;
80732;SDS011;70130;44.534;18.678;2023-07-30T04:15:30;12.88;;;7.38;;
80732;SDS011;70130;44.534;18.678;2023-07-30T04:17:55;11.68;;;7.50;;
80732;SDS011;70130;44.534;18.678;2023-07-30T04:20:21;11.65;;;8.13;;
80732;SDS011;70130;44.534;18.678;2023-07-30T04:22:47;8.63;;;7.47;;
80732;SDS011;70130;44.534;18.678;2023-07-30T04:25:12;9.00;;;7.13;;
80732;SDS011;70130;44.534;18.678;2023-07-30T04:27:38;14.77;;;8.45;;
80732;SDS011;70130;44.534;18.678;2023-07-30T04:30:06;12.07;;;7.78;;
80732;SDS011;70130;44.534;18.678;2023-07-30T04:32:33;10.65;;;7.38;;
80732;SDS011;70130;44.534;18.678;2023-07-30T04:34:58;12.57;;;8.43;;
80732;SDS011;70130;44.534;18.678;2023-07-30T04:37:24;12.32;;;8.43;;
80732;SDS011;70130;44.534;18.678;2023-07-30T04:39:51;8.93;;;7.13;;
80732;SDS011;70130;44.534;18.678;2023-07-30T04:42:17;13.55;;;7.85;;
80732;SDS011;70130;44.534;18.678;2023-07-30T04:44:43;9.20;;;7.60;;
80732;SDS011;70130;44.534;18.678;2023-07-30T04:47:13;9.75;;;7.53;;
80732;SDS011;70130;44.534;18.678;2023-07-30T04:49:39;11.38;;;7.47;;
80732;SDS011;70130;44.534;18.678;2023-07-30T04:52:06;9.45;;;7.82;;
80732;SDS011;70130;44.534;18.678;2023-07-30T04:54:33;9.90;;;7.20;;
80732;SDS011;70130;44.534;18.678;2023-07-30T04:56:59;12.15;;;8.23;;
80732;SDS011;70130;44.534;18.678;2023-07-30T04:59:24;9.48;;;7.38;;
80732;SDS011;70130;44.534;18.678;2023-07-30T05:01:50;10.27;;;7.28;;
80732;SDS011;70130;44.534;18.678;2023-07-30T05:04:15;10.48;;;7.40;;
80732;SDS011;70130;44.534;18.678;2023-07-30T05:06:41;11.30;;;7.72;;
80732;SDS011;70130;44.534;18.678;2023-07-30T05:09:07;11.50;;;7.63;;
80732;SDS011;70130;44.534;18.678;2023-07-30T05:11:32;9.57;;;7.43;;
80732;SDS011;70130;44.534;18.678;2023-07-30T05:13:58;11.65;;;7.75;;
80732;SDS011;70130;44.534;18.678;2023-07-30T05:16:23;12.45;;;7.32;;
80732;SDS011;70130;44.534;18.678;2023-07-30T05:18:49;14.15;;;8.10;;
80732;SDS011;70130;44.534;18.678;2023-07-30T05:21:15;11.30;;;8.48;;
80732;SDS011;70130;44.534;18.678;2023-07-30T05:23:40;13.70;;;8.10;;
80732;SDS011;70130;44.534;18.678;2023-07-30T05:26:06;12.23;;;8.18;;
80732;SDS011;70130;44.534;18.678;2023-07-30T05:28:31;11.80;;;8.50;;
80732;SDS011;70130;44.534;18.678;2023-07-30T05:30:58;11.82;;;8.57;;
80732;SDS011;70130;44.534;18.678;2023-07-30T05:33:23;10.93;;;7.85;;
80732;SDS011;70130;44.534;18.678;2023-07-30T05:35:49;9.35;;;7.28;;
80732;SDS011;70130;44.534;18.678;2023-07-30T05:38:15;13.38;;;7.28;;
80732;SDS011;70130;44.534;18.678;2023-07-30T05:40:41;12.25;;;8.27;;
80732;SDS011;70130;44.534;18.678;2023-07-30T05:43:06;11.25;;;7.78;;
80732;SDS011;70130;44.534;18.678;2023-07-30T05:45:33;9.93;;;7.20;;
80732;SDS011;70130;44.534;18.678;2023-07-30T05:47:59;8.95;;;7.13;;
80732;SDS011;70130;44.534;18.678;2023-07-30T05:50:25;9.60;;;7.20;;
80732;SDS011;70130;44.534;18.678;2023-07-30T05:52:50;9.90;;;7.63;;
80732;SDS011;70130;44.534;18.678;2023-07-30T05:55:16;8.77;;;7.50;;
80732;SDS011;70130;44.534;18.678;2023-07-30T05:57:41;10.95;;;7.43;;
80732;SDS011;70130;44.534;18.678;2023-07-30T06:00:07;10.68;;;7.90;;
80732;SDS011;70130;44.534;18.678;2023-07-30T06:02:39;9.93;;;7.22;;
80732;SDS011;70130;44.534;18.678;2023-07-30T06:05:05;9.73;;;7.57;;
80732;SDS011;70130;44.534;18.678;2023-07-30T06:07:30;13.77;;;7.40;;
80732;SDS011;70130;44.534;18.678;2023-07-30T06:09:56;12.75;;;6.95;;
80732;SDS011;70130;44.534;18.678;2023-07-30T06:12:21;9.10;;;7.65;;
80732;SDS011;70130;44.534;18.678;2023-07-30T06:14:47;10.80;;;7.78;;
80732;SDS011;70130;44.534;18.678;2023-07-30T06:17:12;14.85;;;7.97;;
80732;SDS011;70130;44.534;18.678;2023-07-30T06:19:38;10.63;;;7.80;;
80732;SDS011;70130;44.534;18.678;2023-07-30T06:22:04;12.77;;;8.45;;
80732;SDS011;70130;44.534;18.678;2023-07-30T06:24:29;14.05;;;9.40;;
80732;SDS011;70130;44.534;18.678;2023-07-30T06:26:55;17.77;;;11.35;;
80732;SDS011;70130;44.534;18.678;2023-07-30T06:29:20;16.50;;;9.18;;
80732;SDS011;70130;44.534;18.678;2023-07-30T06:31:46;10.32;;;8.65;;
80732;SDS011;70130;44.534;18.678;2023-07-30T06:34:12;12.48;;;8.43;;
80732;SDS011;70130;44.534;18.678;2023-07-30T06:36:37;12.55;;;8.82;;
80732;SDS011;70130;44.534;18.678;2023-07-30T06:39:03;11.02;;;8.90;;
80732;SDS011;70130;44.534;18.678;2023-07-30T06:41:28;12.07;;;8.30;;
80732;SDS011;70130;44.534;18.678;2023-07-30T06:43:54;11.73;;;8.40;;
80732;SDS011;70130;44.534;18.678;2023-07-30T06:46:20;12.35;;;8.85;;
80732;SDS011;70130;44.534;18.678;2023-07-30T06:48:45;10.95;;;9.07;;
80732;SDS011;70130;44.534;18.678;2023-07-30T06:51:11;13.05;;;9.25;;
80732;SDS011;70130;44.534;18.678;2023-07-30T06:53:38;12.38;;;8.23;;
80732;SDS011;70130;44.534;18.678;2023-07-30T06:56:04;12.07;;;8.55;;
80732;SDS011;70130;44.534;18.678;2023-07-30T06:58:30;12.20;;;8.90;;
80732;SDS011;70130;44.534;18.678;2023-07-30T07:00:55;15.15;;;8.77;;
80732;SDS011;70130;44.534;18.678;2023-07-30T07:03:21;11.27;;;9.82;;
80732;SDS011;70130;44.534;18.678;2023-07-30T07:05:56;11.13;;;8.45;;
80732;SDS011;70130;44.534;18.678;2023-07-30T07:08:21;11.43;;;8.82;;
80732;SDS011;70130;44.534;18.678;2023-07-30T07:10:48;12.18;;;8.57;;
80732;SDS011;70130;44.534;18.678;2023-07-30T07:13:14;12.68;;;9.05;;
80732;SDS011;70130;44.534;18.678;2023-07-30T07:15:43;9.85;;;8.85;;
80732;SDS011;70130;44.534;18.678;2023-07-30T07:18:08;12.30;;;9.32;;
80732;SDS011;70130;44.534;18.678;2023-07-30T07:20:35;14.52;;;9.60;;
80732;SDS011;70130;44.534;18.678;2023-07-30T07:23:02;12.05;;;9.55;;
80732;SDS011;70130;44.534;18.678;2023-07-30T07:25:28;13.18;;;8.98;;
80732;SDS011;70130;44.534;18.678;2023-07-30T07:27:53;12.75;;;8.57;;
80732;SDS011;70130;44.534;18.678;2023-07-30T07:30:19;9.30;;;8.05;;
80732;SDS011;70130;44.534;18.678;2023-07-30T07:32:44;9.73;;;7.90;;
80732;SDS011;70130;44.534;18.678;2023-07-30T07:35:10;11.40;;;8.88;;
80732;SDS011;70130;44.534;18.678;2023-07-30T07:37:35;10.48;;;8.57;;
80732;SDS011;70130;44.534;18.678;2023-07-30T07:40:01;10.15;;;8.38;;
80732;SDS011;70130;44.534;18.678;2023-07-30T07:42:29;12.25;;;7.80;;
80732;SDS011;70130;44.534;18.678;2023-07-30T07:44:55;9.95;;;7.68;;
80732;SDS011;70130;44.534;18.678;2023-07-30T07:47:21;10.10;;;8.18;;
80732;SDS011;70130;44.534;18.678;2023-07-30T07:49:46;9.68;;;8.68;;
80732;SDS011;70130;44.534;18.678;2023-07-30T07:52:13;11.38;;;8.20;;
80732;SDS011;70130;44.534;18.678;2023-07-30T07:54:40;10.23;;;8.93;;
80732;SDS011;70130;44.534;18.678;2023-07-30T07:57:07;14.00;;;9.07;;
80732;SDS011;70130;44.534;18.678;2023-07-30T07:59:32;11.27;;;8.50;;
80732;SDS011;70130;44.534;18.678;2023-07-30T08:01:58;12.88;;;9.32;;
80732;SDS011;70130;44.534;18.678;2023-07-30T08:04:24;13.15;;;8.38;;
80732;SDS011;70130;44.534;18.678;2023-07-30T08:06:49;10.27;;;8.32;;
80732;SDS011;70130;44.534;18.678;2023-07-30T08:09:15;14.63;;;9.30;;
80732;SDS011;70130;44.534;18.678;2023-07-30T08:11:40;12.82;;;8.60;;
80732;SDS011;70130;44.534;18.678;2023-07-30T08:14:06;12.00;;;9.05;;
80732;SDS011;70130;44.534;18.678;2023-07-30T08:16:31;13.57;;;8.32;;
80732;SDS011;70130;44.534;18.678;2023-07-30T08:18:57;9.43;;;8.45;;
80732;SDS011;70130;44.534;18.678;2023-07-30T08:21:23;10.40;;;8.63;;
80732;SDS011;70130;44.534;18.678;2023-07-30T08:23:48;10.35;;;8.80;;
80732;SDS011;70130;44.534;18.678;2023-07-30T08:26:14;10.25;;;8.43;;
80732;SDS011;70130;44.534;18.678;2023-07-30T08:28:39;10.57;;;8.88;;
80732;SDS011;70130;44.534;18.678;2023-07-30T08:31:05;14.27;;;8.52;;
80732;SDS011;70130;44.534;18.678;2023-07-30T08:33:31;11.32;;;8.98;;
80732;SDS011;70130;44.534;18.678;2023-07-30T08:35:58;13.15;;;7.97;;
80732;SDS011;70130;44.534;18.678;2023-07-30T08:38:25;9.52;;;8.52;;
80732;SDS011;70130;44.534;18.678;2023-07-30T08:40:51;11.18;;;9.15;;
80732;SDS011;70130;44.534;18.678;2023-07-30T08:43:19;10.80;;;8.93;;
80732;SDS011;70130;44.534;18.678;2023-07-30T08:45:45;10.93;;;8.85;;
80732;SDS011;70130;44.534;18.678;2023-07-30T08:48:10;11.23;;;9.05;;
80732;SDS011;70130;44.534;18.678;2023-07-30T08:50:36;14.48;;;9.23;;
80732;SDS011;70130;44.534;18.678;2023-07-30T08:53:03;11.73;;;9.05;;
80732;SDS011;70130;44.534;18.678;2023-07-30T08:55:29;12.10;;;9.27;;
80732;SDS011;70130;44.534;18.678;2023-07-30T08:57:58;15.57;;;9.93;;
80732;SDS011;70130;44.534;18.678;2023-07-30T09:00:26;11.70;;;9.07;;
80732;SDS011;70130;44.534;18.678;2023-07-30T09:02:58;14.63;;;9.73;;
80732;SDS011;70130;44.534;18.678;2023-07-30T09:05:25;15.73;;;9.63;;
80732;SDS011;70130;44.534;18.678;2023-07-30T09:07:53;13.70;;;10.50;;
80732;SDS011;70130;44.534;18.678;2023-07-30T09:10:19;10.85;;;9.43;;
80732;SDS011;70130;44.534;18.678;2023-07-30T09:12:44;15.05;;;10.18;;
80732;SDS011;70130;44.534;18.678;2023-07-30T09:15:10;11.60;;;9.63;;
80732;SDS011;70130;44.534;18.678;2023-07-30T09:17:36;11.20;;;8.80;;
80732;SDS011;70130;44.534;18.678;2023-07-30T09:20:02;12.98;;;9.07;;
80732;SDS011;70130;44.534;18.678;2023-07-30T09:22:30;11.57;;;9.32;;
80732;SDS011;70130;44.534;18.678;2023-07-30T09:25:05;12.55;;;9.25;;
80732;SDS011;70130;44.534;18.678;2023-07-30T09:27:32;11.27;;;9.65;;
80732;SDS011;70130;44.534;18.678;2023-07-30T09:29:58;12.52;;;9.95;;
80732;SDS011;70130;44.534;18.678;2023-07-30T09:32:26;14.13;;;10.20;;
80732;SDS011;70130;44.534;18.678;2023-07-30T09:37:29;14.32;;;9.57;;
80732;SDS011;70130;44.534;18.678;2023-07-30T09:39:54;13.73;;;9.77;;
80732;SDS011;70130;44.534;18.678;2023-07-30T09:42:26;11.38;;;9.23;;
80732;SDS011;70130;44.534;18.678;2023-07-30T09:44:52;12.63;;;9.73;;
80732;SDS011;70130;44.534;18.678;2023-07-30T09:47:18;10.70;;;7.97;;
80732;SDS011;70130;44.534;18.678;2023-07-30T09:49:43;9.70;;;8.70;;
80732;SDS011;70130;44.534;18.678;2023-07-30T09:52:09;11.27;;;8.82;;
80732;SDS011;70130;44.534;18.678;2023-07-30T09:54:37;11.10;;;8.70;;
80732;SDS011;70130;44.534;18.678;2023-07-30T09:57:04;11.30;;;8.13;;
80732;SDS011;70130;44.534;18.678;2023-07-30T09:59:32;9.88;;;8.88;;
80732;SDS011;70130;44.534;18.678;2023-07-30T10:01:57;10.43;;;9.20;;
80732;SDS011;70130;44.534;18.678;2023-07-30T10:04:23;10.00;;;8.82;;
80732;SDS011;70130;44.534;18.678;2023-07-30T10:06:58;10.95;;;8.85;;
80732;SDS011;70130;44.534;18.678;2023-07-30T10:09:28;11.63;;;9.15;;
80732;SDS011;70130;44.534;18.678;2023-07-30T10:11:57;11.73;;;9.65;;
80732;SDS011;70130;44.534;18.678;2023-07-30T10:14:25;14.82;;;11.40;;
80732;SDS011;70130;44.534;18.678;2023-07-30T10:16:52;12.50;;;9.68;;
80732;SDS011;70130;44.534;18.678;2023-07-30T10:19:25;11.77;;;9.70;;
80732;SDS011;70130;44.534;18.678;2023-07-30T10:22:38;11.45;;;9.55;;
80732;SDS011;70130;44.534;18.678;2023-07-30T10:24:38;11.65;;;10.43;;
80732;SDS011;70130;44.534;18.678;2023-07-30T10:27:07;10.50;;;9.45;;
80732;SDS011;70130;44.534;18.678;2023-07-30T10:29:35;12.55;;;9.77;;
80732;SDS011;70130;44.534;18.678;2023-07-30T10:32:03;13.30;;;9.88;;
80732;SDS011;70130;44.534;18.678;2023-07-30T10:34:45;12.20;;;9.43;;
80732;SDS011;70130;44.534;18.678;2023-07-30T10:37:17;11.27;;;10.10;;
80732;SDS011;70130;44.534;18.678;2023-07-30T10:39:44;15.73;;;12.23;;
80732;SDS011;70130;44.534;18.678;2023-07-30T10:42:13;13.50;;;11.18;;
80732;SDS011;70130;44.534;18.678;2023-07-30T10:44:39;13.70;;;10.57;;
80732;SDS011;70130;44.534;18.678;2023-07-30T10:47:09;15.18;;;10.75;;
80732;SDS011;70130;44.534;18.678;2023-07-30T10:49:39;14.90;;;12.23;;
80732;SDS011;70130;44.534;18.678;2023-07-30T10:52:11;11.25;;;10.10;;
80732;SDS011;70130;44.534;18.678;2023-07-30T10:54:37;12.63;;;9.68;;
80732;SDS011;70130;44.534;18.678;2023-07-30T10:57:03;11.70;;;10.38;;
80732;SDS011;70130;44.534;18.678;2023-07-30T10:59:36;15.18;;;11.55;;
80732;SDS011;70130;44.534;18.678;2023-07-30T11:02:02;24.50;;;18.67;;
80732;SDS011;70130;44.534;18.678;2023-07-30T11:04:28;15.02;;;10.18;;
80732;SDS011;70130;44.534;18.678;2023-07-30T11:06:54;17.05;;;13.25;;
80732;SDS011;70130;44.534;18.678;2023-07-30T11:09:20;13.48;;;10.35;;
80732;SDS011;70130;44.534;18.678;2023-07-30T11:11:47;12.40;;;10.38;;
80732;SDS011;70130;44.534;18.678;2023-07-30T11:14:17;14.25;;;10.30;;
80732;SDS011;70130;44.534;18.678;2023-07-30T11:16:53;10.98;;;9.95;;
80732;SDS011;70130;44.534;18.678;2023-07-30T11:19:25;12.38;;;11.15;;
80732;SDS011;70130;44.534;18.678;2023-07-30T11:21:53;14.57;;;12.73;;
80732;SDS011;70130;44.534;18.678;2023-07-30T11:24:20;15.40;;;13.77;;
80732;SDS011;70130;44.534;18.678;2023-07-30T11:26:58;18.70;;;14.95;;
80732;SDS011;70130;44.534;18.678;2023-07-30T11:29:25;16.60;;;14.90;;
80732;SDS011;70130;44.534;18.678;2023-07-30T11:31:51;15.52;;;13.55;;
80732;SDS011;70130;44.534;18.678;2023-07-30T11:34:21;18.20;;;15.20;;
80732;SDS011;70130;44.534;18.678;2023-07-30T11:36:48;18.00;;;14.48;;
80732;SDS011;70130;44.534;18.678;2023-07-30T11:39:14;15.85;;;13.45;;
80732;SDS011;70130;44.534;18.678;2023-07-30T11:41:40;16.05;;;12.70;;
80732;SDS011;70130;44.534;18.678;2023-07-30T11:44:06;14.02;;;11.23;;
80732;SDS011;70130;44.534;18.678;2023-07-30T11:46:31;14.48;;;12.30;;
80732;SDS011;70130;44.534;18.678;2023-07-30T11:49:11;15.50;;;11.00;;
80732;SDS011;70130;44.534;18.678;2023-07-30T11:51:38;13.75;;;9.93;;
80732;SDS011;70130;44.534;18.678;2023-07-30T11:54:05;13.23;;;9.68;;
80732;SDS011;70130;44.534;18.678;2023-07-30T11:56:31;10.45;;;8.75;;
80732;SDS011;70130;44.534;18.678;2023-07-30T11:58:58;12.45;;;8.90;;
80732;SDS011;70130;44.534;18.678;2023-07-30T12:01:25;13.77;;;10.32;;
80732;SDS011;70130;44.534;18.678;2023-07-30T12:03:54;11.52;;;8.85;;
80732;SDS011;70130;44.534;18.678;2023-07-30T12:06:23;10.95;;;8.70;;
80732;SDS011;70130;44.534;18.678;2023-07-30T12:08:50;12.32;;;8.65;;
80732;SDS011;70130;44.534;18.678;2023-07-30T12:11:16;13.52;;;9.13;;
80732;SDS011;70130;44.534;18.678;2023-07-30T12:13:45;11.13;;;9.27;;
80732;SDS011;70130;44.534;18.678;2023-07-30T12:16:11;10.50;;;8.57;;
80732;SDS011;70130;44.534;18.678;2023-07-30T12:18:39;11.50;;;8.20;;
80732;SDS011;70130;44.534;18.678;2023-07-30T12:21:05;12.80;;;8.73;;
80732;SDS011;70130;44.534;18.678;2023-07-30T12:23:33;9.15;;;7.43;;
80732;SDS011;70130;44.534;18.678;2023-07-30T12:25:59;10.65;;;7.68;;
80732;SDS011;70130;44.534;18.678;2023-07-30T12:28:26;11.45;;;7.70;;
80732;SDS011;70130;44.534;18.678;2023-07-30T12:30:51;9.65;;;7.65;;
80732;SDS011;70130;44.534;18.678;2023-07-30T12:33:17;9.63;;;7.38;;
80732;SDS011;70130;44.534;18.678;2023-07-30T12:35:42;10.25;;;6.90;;
80732;SDS011;70130;44.534;18.678;2023-07-30T12:38:08;8.90;;;6.60;;
80732;SDS011;70130;44.534;18.678;2023-07-30T12:40:34;9.00;;;6.35;;
80732;SDS011;70130;44.534;18.678;2023-07-30T12:43:02;10.27;;;6.60;;
80732;SDS011;70130;44.534;18.678;2023-07-30T12:45:29;8.38;;;6.40;;
80732;SDS011;70130;44.534;18.678;2023-07-30T12:47:55;7.85;;;5.93;;
80732;SDS011;70130;44.534;18.678;2023-07-30T12:50:20;10.90;;;5.82;;
80732;SDS011;70130;44.534;18.678;2023-07-30T12:52:46;8.35;;;6.18;;
80732;SDS011;70130;44.534;18.678;2023-07-30T12:55:12;9.25;;;5.57;;
80732;SDS011;70130;44.534;18.678;2023-07-30T12:57:37;10.05;;;5.97;;
80732;SDS011;70130;44.534;18.678;2023-07-30T13:00:03;6.78;;;5.50;;
80732;SDS011;70130;44.534;18.678;2023-07-30T13:02:30;9.63;;;6.00;;
80732;SDS011;70130;44.534;18.678;2023-07-30T13:04:58;7.90;;;5.28;;
80732;SDS011;70130;44.534;18.678;2023-07-30T13:07:24;5.80;;;4.75;;
80732;SDS011;70130;44.534;18.678;2023-07-30T13:09:58;6.43;;;4.80;;
80732;SDS011;70130;44.534;18.678;2023-07-30T13:12:33;8.45;;;5.00;;
80732;SDS011;70130;44.534;18.678;2023-07-30T13:14:59;7.00;;;5.25;;
80732;SDS011;70130;44.534;18.678;2023-07-30T13:17:25;6.85;;;5.47;;
80732;SDS011;70130;44.534;18.678;2023-07-30T13:19:51;7.53;;;5.88;;
80732;SDS011;70130;44.534;18.678;2023-07-30T13:22:16;7.78;;;6.35;;
80732;SDS011;70130;44.534;18.678;2023-07-30T13:24:42;10.38;;;5.47;;
80732;SDS011;70130;44.534;18.678;2023-07-30T13:27:14;8.40;;;5.70;;
80732;SDS011;70130;44.534;18.678;2023-07-30T13:29:39;8.77;;;5.95;;
80732;SDS011;70130;44.534;18.678;2023-07-30T13:32:05;8.18;;;5.90;;
80732;SDS011;70130;44.534;18.678;2023-07-30T13:34:31;6.47;;;5.55;;
80732;SDS011;70130;44.534;18.678;2023-07-30T13:36:57;7.05;;;6.20;;
80732;SDS011;70130;44.534;18.678;2023-07-30T13:39:22;8.50;;;6.28;;
80732;SDS011;70130;44.534;18.678;2023-07-30T13:41:48;10.05;;;6.07;;
80732;SDS011;70130;44.534;18.678;2023-07-30T13:44:14;9.00;;;6.45;;
80732;SDS011;70130;44.534;18.678;2023-07-30T13:46:39;8.55;;;6.43;;
80732;SDS011;70130;44.534;18.678;2023-07-30T13:49:05;10.48;;;6.80;;
80732;SDS011;70130;44.534;18.678;2023-07-30T13:51:31;10.95;;;7.55;;
80732;SDS011;70130;44.534;18.678;2023-07-30T13:54:00;10.95;;;6.57;;
80732;SDS011;70130;44.534;18.678;2023-07-30T13:56:27;10.45;;;8.52;;
80732;SDS011;70130;44.534;18.678;2023-07-30T13:58:52;8.23;;;6.90;;
80732;SDS011;70130;44.534;18.678;2023-07-30T14:01:18;10.13;;;6.55;;
80732;SDS011;70130;44.534;18.678;2023-07-30T14:03:44;10.60;;;6.93;;
80732;SDS011;70130;44.534;18.678;2023-07-30T14:06:10;11.68;;;6.53;;
80732;SDS011;70130;44.534;18.678;2023-07-30T14:08:36;10.15;;;6.05;;
80732;SDS011;70130;44.534;18.678;2023-07-30T14:11:01;8.75;;;6.18;;
80732;SDS011;70130;44.534;18.678;2023-07-30T14:13:27;8.15;;;6.45;;
80732;SDS011;70130;44.534;18.678;2023-07-30T14:15:52;8.68;;;6.40;;
80732;SDS011;70130;44.534;18.678;2023-07-30T14:18:18;7.72;;;6.20;;
80732;SDS011;70130;44.534;18.678;2023-07-30T14:20:44;7.75;;;6.75;;
80732;SDS011;70130;44.534;18.678;2023-07-30T14:23:09;7.85;;;7.05;;
80732;SDS011;70130;44.534;18.678;2023-07-30T14:25:36;8.88;;;7.15;;
80732;SDS011;70130;44.534;18.678;2023-07-30T14:28:02;8.48;;;7.55;;